Time;durP1;ratioP1;P1;durP2;ratioP2;P2;SDS_P1;SDS_P2;PMS_P1;PMS_P2;Temp;Humidity;BMP_temperature;BMP_pressure;BME280_temperature;BME280_humidity;BME280_pressure;Samples;Min_cycle;Max_cycle;Signal;HPM_P1;HPM_P2
2023/09/17 00:01:38;;;;;;;5.03;1.75;;;;;;;19.27;63.55;100216.44;5346006;26;33817;-82
2023/09/17 00:04:06;;;;;;;3.45;1.87;;;;;;;19.31;63.13;100217.94;5309349;26;32744;-82
2023/09/17 00:06:34;;;;;;;1.08;0.85;;;;;;;19.27;63.21;100226.31;5345386;26;33505;-82
2023/09/17 00:09:03;;;;;;;0.70;0.70;;;;;;;19.17;63.57;100221.62;5327216;26;33205;-82
2023/09/17 00:11:31;;;;;;;1.95;0.98;;;;;;;19.21;63.62;100219.59;5309618;26;32446;-82
2023/09/17 00:13:58;;;;;;;0.75;0.68;;;;;;;19.25;63.31;100212.19;5345718;26;34023;-82
2023/09/17 00:16:31;;;;;;;0.55;0.50;;;;;;;19.28;63.17;100211.97;5327799;26;34623;-82
2023/09/17 00:19:00;;;;;;;1.45;0.93;;;;;;;19.24;63.08;100207.81;5328461;26;33932;-82
2023/09/17 00:21:27;;;;;;;0.88;0.73;;;;;;;19.15;63.25;100207.50;5327597;26;33181;-81
2023/09/17 00:23:55;;;;;;;1.20;0.93;;;;;;;19.04;63.73;100202.09;5326966;26;32722;-82
2023/09/17 00:26:23;;;;;;;3.55;1.15;;;;;;;19.10;63.55;100201.62;5365672;26;34829;-81
2023/09/17 00:28:50;;;;;;;0.70;0.68;;;;;;;19.08;63.46;100195.53;5326025;26;33602;-82
2023/09/17 00:31:18;;;;;;;1.08;0.98;;;;;;;19.04;63.61;100204.78;5327194;26;32651;-82
2023/09/17 00:33:46;;;;;;;0.90;0.90;;;;;;;19.01;63.39;100198.78;5327683;26;32851;-82
2023/09/17 00:36:14;;;;;;;1.55;0.93;;;;;;;18.88;63.98;100205.00;5309054;26;34223;-81
2023/09/17 00:38:41;;;;;;;0.55;0.55;;;;;;;18.99;63.69;100201.56;5308788;26;33204;-82
2023/09/17 00:41:09;;;;;;;2.30;0.95;;;;;;;19.00;63.64;100199.75;5326952;26;33291;-82
2023/09/17 00:43:37;;;;;;;0.65;0.60;;;;;;;18.91;64.04;100194.09;5328610;26;33888;-81
2023/09/17 00:46:06;;;;;;;1.02;0.93;;;;;;;18.98;63.61;100194.47;5331445;26;33816;-81
2023/09/17 00:48:34;;;;;;;0.57;0.57;;;;;;;19.00;63.38;100197.06;5349148;26;33320;-82
2023/09/17 00:51:03;;;;;;;0.70;0.70;;;;;;;18.85;63.85;100199.03;5368662;26;33413;-82
2023/09/17 00:53:31;;;;;;;0.80;0.70;;;;;;;18.91;63.53;100198.59;5330563;26;33774;-82
2023/09/17 00:55:59;;;;;;;1.65;1.20;;;;;;;18.79;63.81;100189.59;5329987;26;33436;-81
2023/09/17 00:58:28;;;;;;;0.52;0.52;;;;;;;18.89;63.42;100184.44;5349490;26;33019;-81
2023/09/17 01:00:58;;;;;;;1.10;0.90;;;;;;;18.89;63.63;100189.78;5350183;26;33447;-82
2023/09/17 01:03:27;;;;;;;1.50;0.88;;;;;;;18.91;63.51;100190.56;5350098;26;33334;-81
2023/09/17 01:05:56;;;;;;;1.12;1.05;;;;;;;18.79;63.70;100191.44;5349046;26;35322;-82
2023/09/17 01:08:25;;;;;;;0.57;0.57;;;;;;;18.78;63.93;100189.72;5349234;26;32894;-81
2023/09/17 01:10:54;;;;;;;1.45;1.23;;;;;;;18.74;63.81;100190.91;5349608;26;32264;-82
2023/09/17 01:13:23;;;;;;;0.45;0.45;;;;;;;18.78;63.39;100193.25;5368374;26;33859;-82
2023/09/17 01:15:51;;;;;;;0.70;0.70;;;;;;;18.65;63.86;100197.72;5331141;26;33075;-82
2023/09/17 01:18:21;;;;;;;0.60;0.60;;;;;;;18.54;64.20;100198.50;5368210;26;32834;-82
2023/09/17 01:21:00;;;;;;;1.35;1.20;;;;;;;18.56;64.22;100193.03;5349609;26;32421;-82
2023/09/17 01:23:36;;;;;;;0.60;0.57;;;;;;;18.57;63.73;100195.59;5368495;26;33520;-82
2023/09/17 01:26:13;;;;;;;1.75;1.27;;;;;;;18.57;63.94;100189.41;5349997;26;34605;-82
2023/09/17 01:28:41;;;;;;;1.92;0.82;;;;;;;18.49;64.25;100197.97;5349953;26;33995;-82
2023/09/17 01:31:09;;;;;;;0.57;0.57;;;;;;;18.46;64.13;100190.16;5366675;26;32401;-80
2023/09/17 01:33:36;;;;;;;0.43;0.43;;;;;;;18.51;64.04;100190.66;5349652;26;34609;-81
2023/09/17 01:36:14;;;;;;;2.00;1.62;;;;;;;18.61;63.52;100190.88;5368305;26;34026;-80
2023/09/17 01:38:48;;;;;;;0.65;0.62;;;;;;;18.64;63.71;100190.66;5331614;26;32922;-81
2023/09/17 01:41:18;;;;;;;0.73;0.47;;;;;;;18.53;63.88;100183.41;5349899;26;34251;-82
2023/09/17 01:43:45;;;;;;;0.43;0.37;;;;;;;18.53;63.82;100188.75;5346679;26;34524;-82
2023/09/17 01:46:16;;;;;;;1.35;1.27;;;;;;;18.51;63.91;100185.31;5347777;26;34895;-82
2023/09/17 01:48:45;;;;;;;0.68;0.65;;;;;;;18.36;64.34;100181.06;5329947;26;34639;-82
2023/09/17 01:51:13;;;;;;;0.50;0.50;;;;;;;18.43;64.00;100183.22;5347590;26;32531;-81
2023/09/17 01:53:41;;;;;;;1.08;1.08;;;;;;;18.32;64.36;100185.75;5346698;26;34699;-81
2023/09/17 01:56:11;;;;;;;0.93;0.93;;;;;;;18.39;64.03;100188.88;5363671;26;32704;-81
2023/09/17 01:58:39;;;;;;;1.75;1.05;;;;;;;18.29;64.29;100190.47;5363358;26;34001;-81
2023/09/17 02:01:06;;;;;;;1.77;0.65;;;;;;;18.40;63.97;100193.25;5365504;26;34167;-81
2023/09/17 02:03:34;;;;;;;0.50;0.50;;;;;;;18.30;64.28;100190.38;5347222;26;32848;-81
2023/09/17 02:06:04;;;;;;;0.90;0.90;;;;;;;18.39;63.92;100188.88;5347784;26;33861;-82
2023/09/17 02:08:32;;;;;;;2.05;0.60;;;;;;;18.39;63.87;100188.88;5347965;26;33254;-82
2023/09/17 02:11:02;;;;;;;0.80;0.65;;;;;;;18.36;63.96;100187.25;5347642;26;33026;-81
2023/09/17 02:13:30;;;;;;;0.65;0.65;;;;;;;18.34;64.11;100177.66;5348291;26;34271;-81
2023/09/17 02:15:58;;;;;;;0.52;0.52;;;;;;;18.27;64.26;100181.69;5364984;26;34477;-80
2023/09/17 02:18:26;;;;;;;1.00;0.82;;;;;;;18.33;63.67;100175.94;5347953;26;32574;-81
2023/09/17 02:20:54;;;;;;;0.50;0.50;;;;;;;18.35;63.58;100172.19;5366280;26;33044;-83
2023/09/17 02:23:22;;;;;;;2.05;0.77;;;;;;;18.27;64.13;100176.34;5366112;26;34724;-83
2023/09/17 02:25:49;;;;;;;0.75;0.65;;;;;;;18.16;64.40;100175.28;5347331;26;33045;-83
2023/09/17 02:28:17;;;;;;;0.85;0.85;;;;;;;18.23;64.04;100172.19;5347661;26;34381;-83
2023/09/17 02:30:46;;;;;;;4.30;1.30;;;;;;;18.20;64.12;100175.94;5347734;26;32797;-82
2023/09/17 02:33:14;;;;;;;0.55;0.55;;;;;;;18.03;64.49;100169.06;5346645;26;33965;-81
2023/09/17 02:35:42;;;;;;;0.65;0.65;;;;;;;17.98;64.79;100171.19;5326470;26;32926;-80
2023/09/17 02:38:09;;;;;;;6.82;0.73;;;;;;;18.04;64.57;100168.12;5345115;26;32946;-81
2023/09/17 02:40:37;;;;;;;1.23;1.12;;;;;;;18.10;64.14;100170.38;5345351;26;32682;-81
2023/09/17 02:43:05;;;;;;;0.95;0.75;;;;;;;18.08;64.30;100172.28;5355173;26;251790;-81
2023/09/17 02:45:33;;;;;;;0.62;0.62;;;;;;;18.10;64.16;100174.88;5348801;26;34699;-80
2023/09/17 02:48:00;;;;;;;1.08;1.08;;;;;;;18.19;63.84;100173.38;5366764;26;33846;-81
2023/09/17 02:50:28;;;;;;;0.55;0.55;;;;;;;18.05;64.09;100171.66;5367694;26;32218;-81
2023/09/17 02:52:56;;;;;;;1.05;0.80;;;;;;;18.06;64.01;100174.22;5349125;26;32686;-80
2023/09/17 02:55:23;;;;;;;1.83;0.95;;;;;;;18.01;64.18;100171.00;5367533;26;34784;-80
2023/09/17 02:57:51;;;;;;;2.65;1.27;;;;;;;17.95;64.56;100173.25;5366686;26;34046;-81
2023/09/17 03:00:21;;;;;;;1.30;0.98;;;;;;;17.94;64.57;100164.34;5348714;26;32961;-80
2023/09/17 03:02:54;;;;;;;0.82;0.80;;;;;;;17.96;64.26;100167.78;5331916;26;32664;-81
2023/09/17 03:05:22;;;;;;;0.60;0.60;;;;;;;17.93;64.14;100168.00;5369398;26;34733;-82
2023/09/17 03:07:51;;;;;;;0.90;0.90;;;;;;;17.81;64.53;100174.19;5350304;26;34026;-82
2023/09/17 03:10:20;;;;;;;1.55;1.45;;;;;;;18.08;63.66;100166.06;5331625;26;32434;-82
2023/09/17 03:12:49;;;;;;;0.55;0.50;;;;;;;17.84;64.30;100163.28;5350291;26;33735;-81
2023/09/17 03:15:17;;;;;;;0.60;0.60;;;;;;;17.80;64.79;100162.66;5350705;26;34801;-81
2023/09/17 03:17:45;;;;;;;2.05;1.25;;;;;;;17.82;64.43;100165.22;5349835;26;32809;-81
2023/09/17 03:20:22;;;;;;;1.17;0.80;;;;;;;17.84;64.63;100165.94;5349987;26;33284;-81
2023/09/17 03:22:50;;;;;;;0.50;0.35;;;;;;;17.86;64.24;100164.03;5366339;26;34115;-81
2023/09/17 03:25:18;;;;;;;0.60;0.52;;;;;;;17.89;64.29;100155.78;5350365;26;34137;-81
2023/09/17 03:27:46;;;;;;;0.40;0.40;;;;;;;17.95;63.95;100147.38;5331019;26;34359;-81
2023/09/17 03:30:14;;;;;;;0.75;0.55;;;;;;;17.82;64.48;100149.19;5368729;26;33511;-81
2023/09/17 03:32:43;;;;;;;0.62;0.62;;;;;;;17.95;63.88;100150.06;5350311;26;34835;-81
2023/09/17 03:35:29;;;;;;;0.45;0.32;;;;;;;17.77;64.42;100154.84;5352897;26;33200;-81
2023/09/17 03:37:57;;;;;;;1.12;0.68;;;;;;;17.72;64.55;100148.06;5368233;26;33125;-81
2023/09/17 03:40:25;;;;;;;0.80;0.80;;;;;;;17.82;64.13;100159.88;5350698;26;33820;-81
2023/09/17 03:42:52;;;;;;;1.12;1.02;;;;;;;17.75;64.31;100158.56;5326342;26;32814;-81
2023/09/17 03:45:20;;;;;;;2.50;0.82;;;;;;;17.72;64.34;100158.75;5345887;26;33796;-81
2023/09/17 03:47:48;;;;;;;1.08;0.95;;;;;;;17.76;64.09;100154.94;5309023;26;33956;-81
2023/09/17 03:50:16;;;;;;;1.20;0.95;;;;;;;17.67;64.12;100153.72;5327182;26;32661;-81
2023/09/17 03:52:51;;;;;;;1.70;0.70;;;;;;;17.62;64.54;100154.03;5326789;26;33536;-80
2023/09/17 03:55:20;;;;;;;0.83;0.83;;;;;;;17.64;64.31;100157.44;5327307;26;33291;-80
2023/09/17 03:57:48;;;;;;;1.70;0.93;;;;;;;17.63;64.45;100155.72;5345909;26;33796;-80
2023/09/17 04:00:17;;;;;;;0.55;0.55;;;;;;;17.77;63.83;100159.31;5309557;26;32251;-80
2023/09/17 04:02:45;;;;;;;0.88;0.88;;;;;;;17.75;63.88;100162.06;5309689;26;33679;-80
2023/09/17 04:05:14;;;;;;;0.68;0.57;;;;;;;17.76;63.74;100155.81;5345742;26;34694;-83
2023/09/17 04:07:44;;;;;;;0.93;0.85;;;;;;;17.72;64.12;100170.28;5346158;26;33579;-83
2023/09/17 04:10:14;;;;;;;0.30;0.30;;;;;;;17.65;64.15;100163.63;5327634;26;32637;-83
2023/09/17 04:12:43;;;;;;;0.98;0.98;;;;;;;17.72;63.81;100164.94;5327083;26;33823;-83
2023/09/17 04:15:16;;;;;;;0.60;0.47;;;;;;;17.62;63.98;100171.88;5309316;26;33812;-83
2023/09/17 04:17:46;;;;;;;0.55;0.47;;;;;;;17.51;64.55;100177.91;5345648;26;32808;-83
2023/09/17 04:20:14;;;;;;;0.30;0.25;;;;;;;17.41;64.93;100176.81;5309607;26;33007;-83
2023/09/17 04:22:42;;;;;;;0.73;0.73;;;;;;;17.61;64.19;100184.38;5345652;26;33783;-83
2023/09/17 04:25:11;;;;;;;3.67;0.98;;;;;;;17.66;64.30;100181.38;5309760;26;33006;-83
2023/09/17 04:27:43;;;;;;;0.73;0.65;;;;;;;17.68;64.29;100174.12;5346205;26;33694;-83
2023/09/17 04:30:13;;;;;;;0.82;0.60;;;;;;;17.60;64.33;100182.63;5346756;26;32103;-83
2023/09/17 04:32:42;;;;;;;0.65;0.65;;;;;;;17.65;63.82;100185.84;5309439;26;32802;-82
2023/09/17 04:35:15;;;;;;;0.43;0.30;;;;;;;17.61;64.22;100192.38;5327446;26;33955;-83
2023/09/17 04:37:46;;;;;;;1.62;0.82;;;;;;;17.56;64.59;100186.47;5327888;26;34382;-81
2023/09/17 04:40:14;;;;;;;0.47;0.47;;;;;;;17.60;64.52;100195.12;5346276;26;33109;-81
2023/09/17 04:42:43;;;;;;;0.22;0.22;;;;;;;17.44;65.05;100192.63;5309316;26;33122;-81
2023/09/17 04:45:11;;;;;;;0.75;0.55;;;;;;;17.45;65.19;100201.50;5327962;26;33759;-82
2023/09/17 04:47:40;;;;;;;2.08;0.50;;;;;;;17.57;64.63;100198.03;5346532;26;34004;-81
2023/09/17 04:50:08;;;;;;;3.83;1.30;;;;;;;17.49;65.08;100195.00;5346190;26;34141;-82
2023/09/17 04:52:36;;;;;;;0.60;0.60;;;;;;;17.52;65.05;100201.00;5309470;26;33028;-81
2023/09/17 04:55:05;;;;;;;0.95;0.70;;;;;;;17.62;64.79;100206.59;5327890;26;34012;-81
2023/09/17 04:57:33;;;;;;;4.00;1.20;;;;;;;17.52;65.14;100214.34;5308756;26;34207;-81
2023/09/17 05:00:10;;;;;;;1.08;0.98;;;;;;;17.53;64.87;100202.69;5328067;26;33503;-81
2023/09/17 05:02:39;;;;;;;1.15;1.05;;;;;;;17.56;65.00;100207.81;5310713;26;33124;-81
2023/09/17 05:05:09;;;;;;;1.25;0.77;;;;;;;17.60;65.24;100209.31;5346245;26;33986;-81
2023/09/17 05:07:38;;;;;;;0.88;0.85;;;;;;;17.67;64.85;100212.47;5327671;26;33893;-81
2023/09/17 05:10:07;;;;;;;0.68;0.65;;;;;;;17.67;65.29;100210.66;5327535;26;33403;-81
2023/09/17 05:12:35;;;;;;;0.65;0.65;;;;;;;17.74;65.23;100204.91;5346137;26;34530;-81
2023/09/17 05:15:03;;;;;;;2.78;1.27;;;;;;;17.95;64.54;100205.31;5308997;26;33664;-81
2023/09/17 05:17:32;;;;;;;1.00;0.85;;;;;;;17.85;65.19;100205.03;5346112;26;33542;-82
2023/09/17 05:20:00;;;;;;;2.30;0.62;;;;;;;18.25;63.81;100211.22;5309392;26;32184;-82
2023/09/17 05:22:30;;;;;;;1.52;1.15;;;;;;;18.13;64.36;100218.25;5327658;26;33450;-82
2023/09/17 05:24:58;;;;;;;1.05;0.90;;;;;;;18.10;65.03;100215.81;5328221;26;33552;-80
2023/09/17 05:27:25;;;;;;;1.25;0.85;;;;;;;18.24;64.71;100219.34;5345765;26;34192;-80
2023/09/17 05:29:54;;;;;;;1.15;0.90;;;;;;;18.13;65.40;100223.59;5327503;26;32780;-80
2023/09/17 05:32:22;;;;;;;7.80;1.87;;;;;;;18.10;66.11;100217.63;5327492;26;34123;-81
2023/09/17 05:34:50;;;;;;;1.73;1.00;;;;;;;18.31;65.44;100220.63;5327070;26;33897;-80
2023/09/17 05:37:18;;;;;;;1.67;1.37;;;;;;;18.37;65.38;100220.19;5324555;26;32932;-81
2023/09/17 05:39:46;;;;;;;0.55;0.50;;;;;;;18.56;64.94;100226.00;5306723;26;33024;-80
2023/09/17 05:42:14;;;;;;;4.68;2.33;;;;;;;18.66;64.79;100224.38;5331823;26;33726;-81
2023/09/17 05:44:42;;;;;;;1.17;1.08;;;;;;;18.79;64.63;100226.22;5346717;26;34779;-80
2023/09/17 05:47:10;;;;;;;0.80;0.80;;;;;;;18.82;65.23;100231.34;5347063;26;33379;-80
2023/09/17 05:49:38;;;;;;;0.98;0.77;;;;;;;18.84;65.47;100229.41;5366079;26;33575;-82
2023/09/17 05:52:06;;;;;;;2.00;0.75;;;;;;;19.33;63.72;100223.22;5346351;26;32802;-81
2023/09/17 05:54:35;;;;;;;1.08;1.02;;;;;;;19.07;64.99;100233.13;5346852;26;33315;-82
2023/09/17 05:57:04;;;;;;;0.80;0.80;;;;;;;19.04;65.75;100234.22;5346704;26;34391;-82
2023/09/17 05:59:32;;;;;;;0.52;0.52;;;;;;;19.19;65.59;100229.56;5365453;26;34161;-82
2023/09/17 06:01:59;;;;;;;0.50;0.50;;;;;;;19.40;65.62;100227.97;5365667;26;34251;-82
2023/09/17 06:04:27;;;;;;;1.15;0.82;;;;;;;19.53;65.75;100230.63;5346667;26;32974;-82
2023/09/17 06:06:55;;;;;;;0.60;0.60;;;;;;;19.73;65.43;100222.94;5346831;26;34569;-82
2023/09/17 06:09:23;;;;;;;0.93;0.75;;;;;;;19.76;65.72;100230.78;5346731;26;33369;-82
2023/09/17 06:11:51;;;;;;;1.05;0.70;;;;;;;19.97;65.42;100231.81;5365679;26;33979;-82
2023/09/17 06:14:18;;;;;;;1.98;1.00;;;;;;;20.05;65.60;100228.56;5365492;26;33752;-82
2023/09/17 06:16:46;;;;;;;0.90;0.73;;;;;;;19.96;66.17;100235.47;5346883;26;32781;-82
2023/09/17 06:19:27;;;;;;;1.35;1.25;;;;;;;20.13;66.88;100229.69;5330343;26;33134;-81
2023/09/17 06:21:55;;;;;;;1.58;1.48;;;;;;;20.23;66.73;100235.19;5365024;26;32811;-82
2023/09/17 06:24:22;;;;;;;1.30;1.20;;;;;;;20.40;66.34;100228.50;5365040;26;34697;-81
2023/09/17 06:26:50;;;;;;;1.20;1.08;;;;;;;20.38;66.59;100239.38;5365560;26;33918;-82
2023/09/17 06:29:18;;;;;;;1.40;0.98;;;;;;;20.87;65.35;100234.69;5365154;26;33189;-82
2023/09/17 06:31:46;;;;;;;1.25;0.98;;;;;;;20.91;65.46;100239.69;5328293;26;32987;-83
2023/09/17 06:34:14;;;;;;;0.75;0.75;;;;;;;20.93;64.84;100237.72;5328411;26;33066;-82
2023/09/17 06:36:42;;;;;;;0.93;0.85;;;;;;;21.37;64.01;100246.75;5347031;26;33877;-82
2023/09/17 06:39:10;;;;;;;3.03;1.35;;;;;;;21.83;62.61;100242.94;5347192;26;33319;-82
2023/09/17 06:41:39;;;;;;;1.92;1.55;;;;;;;21.95;62.14;100243.75;5347514;26;32724;-83
2023/09/17 06:44:10;;;;;;;1.90;1.80;;;;;;;21.87;62.50;100243.53;5330021;26;33836;-82
2023/09/17 06:46:38;;;;;;;2.53;1.85;;;;;;;22.00;61.70;100244.22;5329351;26;32787;-82
2023/09/17 06:49:05;;;;;;;1.27;1.27;;;;;;;22.12;61.14;100243.19;5348077;26;33467;-82
2023/09/17 06:51:33;;;;;;;0.82;0.82;;;;;;;22.22;60.52;100238.78;5347563;26;33712;-82
2023/09/17 06:54:01;;;;;;;1.05;0.98;;;;;;;22.50;60.29;100244.44;5366391;26;33936;-82
2023/09/17 06:56:29;;;;;;;0.70;0.70;;;;;;;22.75;59.89;100240.50;5347598;26;34049;-81
2023/09/17 06:58:57;;;;;;;3.78;1.15;;;;;;;22.38;59.86;100248.22;5347188;26;32911;-83
2023/09/17 07:01:25;;;;;;;1.05;0.82;;;;;;;22.66;59.66;100247.53;5347068;26;33053;-81
2023/09/17 07:03:53;;;;;;;2.15;1.40;;;;;;;22.87;59.84;100243.94;5366265;26;33021;-82
2023/09/17 07:06:21;;;;;;;0.90;0.90;;;;;;;23.16;58.92;100244.94;5347637;26;33427;-82
2023/09/17 07:08:49;;;;;;;1.55;0.95;;;;;;;23.08;58.61;100247.47;5366050;26;33266;-82
2023/09/17 07:11:16;;;;;;;0.98;0.60;;;;;;;22.96;58.97;100248.53;5366169;26;34792;-82
2023/09/17 07:13:44;;;;;;;4.00;1.58;;;;;;;23.30;58.61;100241.00;5347072;26;33126;-82
2023/09/17 07:16:13;;;;;;;2.85;1.45;;;;;;;23.57;58.33;100237.66;5348520;26;32924;-81
2023/09/17 07:18:41;;;;;;;2.05;1.48;;;;;;;23.67;57.92;100235.00;5347400;26;34161;-81
2023/09/17 07:21:08;;;;;;;3.92;1.65;;;;;;;23.73;56.85;100246.06;5346993;26;32685;-82
2023/09/17 07:23:36;;;;;;;1.25;1.15;;;;;;;23.83;56.71;100237.13;5347560;26;33531;-82
2023/09/17 07:26:06;;;;;;;0.95;0.95;;;;;;;23.59;57.59;100241.06;5365636;26;34673;-82
2023/09/17 07:28:34;;;;;;;3.97;2.03;;;;;;;23.73;56.73;100243.38;5347664;26;32541;-82
2023/09/17 07:31:02;;;;;;;2.92;2.10;;;;;;;24.08;55.96;100241.97;5346913;26;33228;-82
2023/09/17 07:33:30;;;;;;;2.00;1.90;;;;;;;24.03;56.01;100249.66;5346968;26;33108;-82
2023/09/17 07:35:57;;;;;;;4.50;2.53;;;;;;;23.96;56.96;100252.03;5347628;26;33227;-82
2023/09/17 07:38:25;;;;;;;1.58;1.40;;;;;;;24.45;55.25;100241.22;5347154;26;33142;-81
2023/09/17 07:40:53;;;;;;;2.12;1.73;;;;;;;24.16;56.13;100244.78;5366135;26;33763;-82
2023/09/17 07:43:21;;;;;;;1.23;0.70;;;;;;;24.46;55.29;100245.66;5343078;26;34800;-82
2023/09/17 07:45:49;;;;;;;6.47;2.42;;;;;;;24.31;55.51;100244.34;5344070;26;33896;-83
2023/09/17 07:48:17;;;;;;;1.67;1.58;;;;;;;24.30;56.50;100246.19;5343518;26;34201;-82
2023/09/17 07:50:44;;;;;;;2.20;1.58;;;;;;;24.71;55.37;100242.31;5343596;26;32871;-83
2023/09/17 07:53:12;;;;;;;1.92;1.45;;;;;;;25.09;53.69;100245.88;5362055;26;33895;-83
2023/09/17 07:55:39;;;;;;;2.45;1.87;;;;;;;24.98;53.97;100246.91;5343383;26;33314;-82
2023/09/17 07:58:07;;;;;;;3.85;2.22;;;;;;;24.81;54.03;100244.13;5343107;26;33220;-83
2023/09/17 08:00:35;;;;;;;0.95;0.93;;;;;;;24.90;54.40;100248.62;5344073;26;33661;-82
2023/09/17 08:03:03;;;;;;;2.75;2.55;;;;;;;24.98;53.71;100249.59;5325073;26;32904;-81
2023/09/17 08:05:32;;;;;;;4.93;2.83;;;;;;;25.06;53.69;100256.94;5361688;26;32740;-81
2023/09/17 08:08:00;;;;;;;1.70;1.35;;;;;;;25.27;52.84;100252.19;5325126;26;32505;-81
2023/09/17 08:10:28;;;;;;;1.98;1.87;;;;;;;25.47;52.59;100258.31;5343535;26;33835;-80
2023/09/17 08:12:56;;;;;;;2.10;1.90;;;;;;;25.29;53.02;100266.38;5361946;26;33730;-81
2023/09/17 08:15:24;;;;;;;1.80;1.67;;;;;;;25.16;53.79;100260.50;5324796;26;34076;-81
2023/09/17 08:17:51;;;;;;;2.45;1.65;;;;;;;25.91;52.56;100254.91;5324864;26;32328;-81
2023/09/17 08:20:20;;;;;;;2.60;1.15;;;;;;;25.79;52.29;100257.87;5324701;26;33907;-80
2023/09/17 08:22:47;;;;;;;1.23;1.20;;;;;;;26.28;51.73;100260.16;5361210;26;33865;-81
2023/09/17 08:25:36;;;;;;;2.70;2.12;;;;;;;26.05;51.54;100255.22;5331669;26;33599;-81
2023/09/17 08:28:24;;;;;;;3.45;2.08;;;;;;;26.56;49.46;100255.47;5361748;26;32977;-81
2023/09/17 08:31:12;;;;;;;3.35;2.53;;;;;;;25.94;51.44;100257.31;5346904;26;34661;-81
2023/09/17 08:34:03;;;;;;;1.50;1.40;;;;;;;25.76;51.64;100255.44;5346731;26;33721;-80
2023/09/17 08:36:36;;;;;;;1.23;1.12;;;;;;;26.33;51.28;100255.13;5344505;26;33403;-80
2023/09/17 08:39:06;;;;;;;2.47;2.28;;;;;;;26.15;50.96;100255.13;5343800;26;34081;-82
2023/09/17 08:41:38;;;;;;;3.97;2.45;;;;;;;26.33;50.55;100248.84;5325963;26;33117;-80
2023/09/17 08:44:06;;;;;;;4.57;2.03;;;;;;;26.28;49.99;100247.47;5347258;26;34455;-80
2023/09/17 08:46:35;;;;;;;1.45;1.40;;;;;;;26.35;50.40;100246.81;5365555;26;34274;-80
2023/09/17 08:49:03;;;;;;;1.90;1.73;;;;;;;26.47;50.42;100240.19;5347246;26;33089;-81
2023/09/17 08:51:33;;;;;;;4.12;2.10;;;;;;;26.43;50.96;100238.81;5328333;26;33062;-81
2023/09/17 08:54:17;;;;;;;2.78;2.58;;;;;;;26.93;49.53;100236.22;5365408;26;33620;-80
2023/09/17 08:56:45;;;;;;;0.90;0.90;;;;;;;26.97;49.17;100236.75;5346813;26;32807;-81
2023/09/17 08:59:19;;;;;;;1.87;1.33;;;;;;;27.00;48.79;100236.41;5346544;26;33471;-81
2023/09/17 09:01:47;;;;;;;1.25;1.15;;;;;;;26.77;49.27;100233.41;5347135;26;34882;-81
2023/09/17 09:04:15;;;;;;;2.35;1.55;;;;;;;26.49;49.83;100240.87;5328465;26;33129;-81
2023/09/17 09:06:45;;;;;;;1.85;1.60;;;;;;;26.43;50.45;100238.81;5347451;26;33646;-81
2023/09/17 09:09:15;;;;;;;1.62;1.52;;;;;;;27.01;49.57;100233.56;5366021;26;33201;-81
2023/09/17 09:11:42;;;;;;;2.65;2.25;;;;;;;27.19;49.15;100241.63;5347362;26;33948;-81
2023/09/17 09:14:10;;;;;;;1.73;1.62;;;;;;;27.17;49.42;100243.66;5365346;26;35124;-82
2023/09/17 09:16:38;;;;;;;2.60;2.40;;;;;;;27.41;48.15;100247.47;5328364;26;33733;-81
2023/09/17 09:19:07;;;;;;;2.37;1.02;;;;;;;27.48;47.84;100245.78;5365449;26;33893;-82
2023/09/17 09:21:35;;;;;;;2.37;2.17;;;;;;;27.64;47.03;100232.28;5328984;26;33761;-81
2023/09/17 09:24:05;;;;;;;11.75;2.03;;;;;;;27.63;47.34;100232.41;5366231;26;35119;-82
2023/09/17 09:26:33;;;;;;;1.83;1.73;;;;;;;27.79;46.73;100219.78;5346967;26;33360;-82
2023/09/17 09:29:01;;;;;;;2.47;2.28;;;;;;;27.39;47.45;100225.06;5347519;26;33623;-81
2023/09/17 09:31:31;;;;;;;1.52;1.42;;;;;;;27.45;48.14;100222.56;5328841;26;33307;-81
2023/09/17 09:33:59;;;;;;;1.40;1.35;;;;;;;27.53;47.47;100221.72;5346567;26;34248;-81
2023/09/17 09:36:28;;;;;;;1.30;1.20;;;;;;;28.16;46.24;100223.00;5346748;26;33099;-82
2023/09/17 09:38:56;;;;;;;1.62;1.52;;;;;;;28.47;45.36;100226.72;5346715;26;33010;-81
2023/09/17 09:41:25;;;;;;;1.95;1.70;;;;;;;28.16;45.85;100228.44;5346846;26;34692;-82
2023/09/17 09:43:56;;;;;;;1.65;1.55;;;;;;;28.39;45.60;100217.75;5346550;26;32930;-81
2023/09/17 09:46:25;;;;;;;4.75;2.95;;;;;;;28.58;44.97;100228.22;5348282;26;33986;-81
2023/09/17 09:48:52;;;;;;;7.00;2.47;;;;;;;28.51;44.81;100228.09;5347042;26;32664;-81
2023/09/17 09:51:21;;;;;;;3.30;2.45;;;;;;;28.29;45.50;100223.31;5347252;26;33017;-81
2023/09/17 09:53:49;;;;;;;2.53;1.75;;;;;;;28.62;44.61;100223.31;5347009;26;33150;-81
2023/09/17 09:56:17;;;;;;;2.35;1.80;;;;;;;28.35;45.36;100221.84;5365317;26;33361;-81
2023/09/17 09:58:45;;;;;;;1.87;1.77;;;;;;;28.69;44.74;100219.72;5364861;26;32063;-81
2023/09/17 10:01:16;;;;;;;1.60;1.50;;;;;;;28.78;44.12;100220.56;5346888;26;32986;-80
2023/09/17 10:03:44;;;;;;;2.50;2.05;;;;;;;29.10;43.97;100216.87;5346938;26;34500;-81
2023/09/17 10:06:11;;;;;;;2.80;1.73;;;;;;;28.80;44.42;100211.19;5346126;26;33505;-80
2023/09/17 10:08:40;;;;;;;2.28;2.08;;;;;;;29.38;42.86;100222.69;5346558;26;33375;-80
2023/09/17 10:11:08;;;;;;;3.92;2.05;;;;;;;29.19;42.96;100220.41;5365696;26;33889;-80
2023/09/17 10:13:37;;;;;;;1.95;1.80;;;;;;;29.52;42.94;100211.03;5346487;26;34078;-80
2023/09/17 10:16:06;;;;;;;2.65;2.35;;;;;;;28.89;43.63;100211.16;5364940;26;33099;-80
2023/09/17 10:18:36;;;;;;;1.52;1.27;;;;;;;28.84;43.76;100208.97;5364735;26;33472;-80
2023/09/17 10:21:04;;;;;;;3.78;1.92;;;;;;;28.87;43.67;100205.06;5346589;26;34560;-80
2023/09/17 10:23:33;;;;;;;2.35;2.15;;;;;;;29.33;43.17;100201.47;5328259;26;34113;-81
2023/09/17 10:26:02;;;;;;;3.25;2.00;;;;;;;28.95;43.48;100207.78;5365308;26;34594;-80
2023/09/17 10:28:31;;;;;;;2.62;1.87;;;;;;;28.88;42.63;100201.34;5346368;26;33513;-80
2023/09/17 10:31:00;;;;;;;3.85;2.30;;;;;;;29.04;42.72;100195.84;5328551;26;34006;-80
2023/09/17 10:33:32;;;;;;;1.83;1.70;;;;;;;28.89;42.91;100197.59;5328265;26;33559;-80
2023/09/17 10:36:01;;;;;;;2.50;2.30;;;;;;;29.17;42.61;100201.56;5327770;26;33087;-80
2023/09/17 10:38:30;;;;;;;2.78;1.60;;;;;;;29.52;42.22;100193.88;5327831;26;34795;-80
2023/09/17 10:40:59;;;;;;;2.37;2.05;;;;;;;29.60;42.06;100202.03;5346644;26;33403;-80
2023/09/17 10:43:27;;;;;;;2.60;2.40;;;;;;;29.61;42.01;100192.81;5327112;26;33823;-80
2023/09/17 10:45:55;;;;;;;2.15;1.92;;;;;;;29.84;42.00;100192.81;5346063;26;33624;-80
2023/09/17 10:48:25;;;;;;;3.08;2.25;;;;;;;30.23;41.53;100186.37;5328474;26;32386;-80
2023/09/17 10:50:53;;;;;;;1.83;1.73;;;;;;;29.88;41.61;100194.16;5327400;26;34368;-80
2023/09/17 10:53:21;;;;;;;5.07;2.75;;;;;;;30.04;40.94;100183.13;5346773;26;34716;-80
2023/09/17 10:55:54;;;;;;;2.33;2.12;;;;;;;30.03;41.54;100184.16;5365087;26;34263;-80
2023/09/17 10:58:28;;;;;;;2.25;2.05;;;;;;;29.97;41.50;100178.63;5346625;26;32392;-80
2023/09/17 11:00:57;;;;;;;1.85;1.75;;;;;;;29.30;43.70;100184.69;5365288;26;34609;-81
2023/09/17 11:03:28;;;;;;;2.05;1.95;;;;;;;29.44;42.29;100174.91;5364417;26;33815;-80
2023/09/17 11:05:57;;;;;;;3.12;2.47;;;;;;;29.79;42.14;100168.03;5346028;26;33387;-80
2023/09/17 11:08:24;;;;;;;2.58;1.75;;;;;;;29.66;41.20;100168.63;5346649;26;32263;-80
2023/09/17 11:10:52;;;;;;;2.22;2.08;;;;;;;29.91;41.10;100152.09;5346622;26;33226;-81
2023/09/17 11:13:20;;;;;;;2.67;2.17;;;;;;;30.58;39.87;100152.16;5327190;26;33775;-80
2023/09/17 11:15:51;;;;;;;2.72;1.50;;;;;;;30.26;41.02;100159.63;5346165;26;34584;-81
2023/09/17 11:18:19;;;;;;;1.95;1.85;;;;;;;30.49;40.59;100166.91;5328652;26;32264;-80
2023/09/17 11:21:16;;;;;;;2.10;1.92;;;;;;;30.27;40.60;100165.94;5364927;26;34004;-81
2023/09/17 11:23:46;;;;;;;3.42;2.80;;;;;;;30.54;40.54;100156.28;5329346;26;33610;-81
2023/09/17 11:26:15;;;;;;;2.12;1.85;;;;;;;30.62;38.77;100164.34;5347748;26;34669;-81
2023/09/17 11:28:43;;;;;;;3.67;3.10;;;;;;;30.55;39.29;100164.25;5347173;26;32508;-81
2023/09/17 11:31:13;;;;;;;2.87;2.00;;;;;;;30.76;39.31;100163.50;5347374;26;32924;-81
2023/09/17 11:33:42;;;;;;;2.42;2.03;;;;;;;30.44;39.51;100159.28;5329556;26;33038;-81